Time;durP1;ratioP1;P1;durP2;ratioP2;P2;SDS_P1;SDS_P2;PMS_P1;PMS_P2;Temp;Humidity;BMP_temperature;BMP_pressure;BME280_temperature;BME280_humidity;BME280_pressure;Samples;Min_cycle;Max_cycle;Signal;HPM_P1;HPM_P2
2023/11/15 00:01:57;;;;;;;1.17;0.70;;;9.20;99.90;;;;;;5087156;28;20702;-76
2023/11/15 00:04:24;;;;;;;0.50;0.50;;;9.20;99.90;;;;;;5087020;28;20609;-75
2023/11/15 00:06:51;;;;;;;1.90;0.60;;;9.20;99.90;;;;;;5087171;28;20635;-76
2023/11/15 00:09:18;;;;;;;2.70;1.27;;;9.30;99.90;;;;;;5086133;28;20765;-76
2023/11/15 00:11:45;;;;;;;1.00;0.80;;;9.20;99.90;;;;;;5087301;28;20652;-76
2023/11/15 00:14:12;;;;;;;0.73;0.60;;;9.20;99.90;;;;;;5086821;28;20668;-75
2023/11/15 00:16:39;;;;;;;0.30;0.30;;;9.10;99.90;;;;;;5086864;28;21157;-75
2023/11/15 00:19:07;;;;;;;1.63;1.00;;;9.10;99.90;;;;;;5086402;28;20727;-76
2023/11/15 00:21:35;;;;;;;0.57;0.57;;;9.00;99.90;;;;;;5086754;28;20624;-76
2023/11/15 00:24:02;;;;;;;1.07;0.67;;;9.00;99.90;;;;;;5085496;28;20625;-76
2023/11/15 00:26:30;;;;;;;1.33;0.53;;;8.90;99.90;;;;;;5086773;28;20686;-76
2023/11/15 00:28:57;;;;;;;1.40;0.50;;;8.90;99.90;;;;;;5086354;28;20632;-76
2023/11/15 00:31:26;;;;;;;0.60;0.60;;;8.90;99.90;;;;;;5086642;28;20701;-76
2023/11/15 00:33:53;;;;;;;0.60;0.40;;;9.00;99.90;;;;;;5086558;28;21245;-76
2023/11/15 00:36:21;;;;;;;1.17;0.70;;;9.00;99.90;;;;;;5085945;28;20629;-75
2023/11/15 00:38:49;;;;;;;1.90;0.63;;;9.00;99.90;;;;;;5085973;28;21138;-76
2023/11/15 00:41:16;;;;;;;0.70;0.60;;;9.00;99.90;;;;;;5086510;28;20627;-75
2023/11/15 00:43:44;;;;;;;1.90;1.13;;;9.00;99.90;;;;;;5087515;28;20698;-76
2023/11/15 00:46:13;;;;;;;0.83;0.77;;;8.90;99.90;;;;;;5087667;28;20699;-76
2023/11/15 00:48:39;;;;;;;2.50;0.80;;;8.80;99.90;;;;;;5085903;28;20636;-76
2023/11/15 00:51:07;;;;;;;0.40;0.37;;;8.80;99.90;;;;;;5087892;28;21179;-76
2023/11/15 00:53:35;;;;;;;0.63;0.63;;;8.80;99.90;;;;;;5089020;28;20621;-76
2023/11/15 00:56:02;;;;;;;0.40;0.40;;;8.80;99.90;;;;;;5097275;28;20728;-76
2023/11/15 00:58:30;;;;;;;0.50;0.50;;;8.80;99.90;;;;;;5086897;28;20631;-77
2023/11/15 01:00:59;;;;;;;4.30;0.73;;;8.80;99.90;;;;;;5086930;28;20721;-76
2023/11/15 01:03:26;;;;;;;1.00;0.90;;;8.80;99.90;;;;;;5090973;28;20628;-76
2023/11/15 01:05:55;;;;;;;0.97;0.80;;;8.90;99.90;;;;;;5087236;28;21186;-76
2023/11/15 01:08:23;;;;;;;0.80;0.57;;;8.90;99.90;;;;;;5091980;28;20629;-76
2023/11/15 01:10:52;;;;;;;1.90;0.60;;;8.90;99.90;;;;;;5086121;28;20672;-76
2023/11/15 01:13:19;;;;;;;0.70;0.53;;;9.00;99.90;;;;;;5078741;28;20637;-76
2023/11/15 01:15:46;;;;;;;0.90;0.60;;;9.00;99.90;;;;;;5091307;28;20629;-76
2023/11/15 01:18:13;;;;;;;0.80;0.77;;;9.00;99.90;;;;;;5085246;28;20661;-76
2023/11/15 01:20:40;;;;;;;0.40;0.33;;;9.00;99.90;;;;;;5095100;28;20616;-76
2023/11/15 01:23:07;;;;;;;0.50;0.27;;;9.00;99.90;;;;;;5088241;28;20632;-76
2023/11/15 01:25:34;;;;;;;0.57;0.57;;;8.90;99.90;;;;;;5086589;28;20625;-76
2023/11/15 01:28:04;;;;;;;0.40;0.40;;;8.90;99.90;;;;;;5088542;28;20706;-76
2023/11/15 01:30:31;;;;;;;1.07;0.70;;;8.90;99.90;;;;;;5083786;28;21012;-76
2023/11/15 01:32:58;;;;;;;0.30;0.30;;;8.90;99.90;;;;;;5086097;28;20629;-76
2023/11/15 01:35:26;;;;;;;0.70;0.63;;;8.90;99.90;;;;;;5089741;28;20655;-76
2023/11/15 01:37:53;;;;;;;0.97;0.77;;;8.90;99.90;;;;;;5093437;28;20727;-75
2023/11/15 01:40:20;;;;;;;0.67;0.67;;;8.90;99.90;;;;;;5089628;28;21128;-76
2023/11/15 01:42:47;;;;;;;1.20;0.77;;;8.90;99.90;;;;;;5091076;28;20977;-75
2023/11/15 01:45:16;;;;;;;3.03;0.57;;;8.90;99.90;;;;;;5089022;28;20976;-75
2023/11/15 01:47:44;;;;;;;0.40;0.40;;;8.90;99.90;;;;;;5090618;28;21182;-76
2023/11/15 01:50:13;;;;;;;0.53;0.50;;;8.80;99.90;;;;;;5089612;28;20663;-75
2023/11/15 01:52:41;;;;;;;0.90;0.57;;;8.80;99.90;;;;;;5089643;28;20635;-75
2023/11/15 01:55:13;;;;;;;0.67;0.67;;;8.70;99.90;;;;;;5089833;28;21062;-75
2023/11/15 01:57:41;;;;;;;0.60;0.60;;;8.70;99.90;;;;;;5088458;28;20631;-75
2023/11/15 02:00:10;;;;;;;2.90;0.63;;;8.70;99.90;;;;;;5095614;28;20620;-75
2023/11/15 02:02:38;;;;;;;0.90;0.70;;;8.70;99.90;;;;;;5089204;28;20621;-75
2023/11/15 02:05:06;;;;;;;0.60;0.60;;;8.70;99.90;;;;;;5081669;28;20628;-75
2023/11/15 02:07:33;;;;;;;2.43;0.77;;;8.80;99.90;;;;;;5089429;28;20621;-75
2023/11/15 02:10:04;;;;;;;0.50;0.50;;;8.80;99.90;;;;;;5088651;28;20648;-74
2023/11/15 02:12:31;;;;;;;1.20;0.70;;;8.70;99.90;;;;;;5095134;28;20633;-74
2023/11/15 02:14:59;;;;;;;0.40;0.40;;;8.70;99.90;;;;;;5089392;28;20667;-75
2023/11/15 02:17:27;;;;;;;0.93;0.70;;;8.70;99.90;;;;;;5089055;28;20624;-75
2023/11/15 02:19:57;;;;;;;0.60;0.50;;;8.60;99.90;;;;;;5094973;28;20744;-75
2023/11/15 02:22:26;;;;;;;0.80;0.80;;;8.60;99.90;;;;;;5103588;28;21404;-75
2023/11/15 02:24:55;;;;;;;0.50;0.50;;;8.50;99.90;;;;;;5096679;28;20627;-75
2023/11/15 02:27:22;;;;;;;0.87;0.50;;;8.60;99.90;;;;;;5088755;28;21806;-75
2023/11/15 02:29:50;;;;;;;0.47;0.40;;;8.60;99.90;;;;;;5093359;28;21260;-75
2023/11/15 02:32:18;;;;;;;0.53;0.53;;;8.60;99.90;;;;;;5094248;28;21284;-76
2023/11/15 02:34:46;;;;;;;2.40;0.80;;;8.60;99.90;;;;;;5088928;28;20671;-75
2023/11/15 02:37:15;;;;;;;0.67;0.60;;;8.60;99.90;;;;;;5089478;28;21223;-75
2023/11/15 02:39:42;;;;;;;3.73;0.73;;;8.50;99.90;;;;;;5094554;28;21250;-75
2023/11/15 02:42:11;;;;;;;0.73;0.40;;;8.40;99.90;;;;;;5095194;28;21090;-75
2023/11/15 02:44:38;;;;;;;0.63;0.60;;;8.40;99.90;;;;;;5092834;28;21014;-75
2023/11/15 02:47:06;;;;;;;1.40;0.63;;;8.40;99.90;;;;;;5090826;28;20636;-75
2023/11/15 02:49:34;;;;;;;0.60;0.60;;;8.40;99.90;;;;;;5088094;28;20632;-75
2023/11/15 02:52:02;;;;;;;2.63;0.70;;;8.30;99.90;;;;;;5098296;28;20653;-75
2023/11/15 02:54:30;;;;;;;0.43;0.43;;;8.30;99.90;;;;;;5089421;28;20636;-75
2023/11/15 02:56:58;;;;;;;0.90;0.50;;;8.30;99.90;;;;;;5088704;28;21024;-75
2023/11/15 02:59:27;;;;;;;0.50;0.50;;;8.40;99.90;;;;;;5087765;28;21131;-75
2023/11/15 03:01:54;;;;;;;0.60;0.60;;;8.30;99.90;;;;;;5090541;28;21075;-75
2023/11/15 03:04:22;;;;;;;0.60;0.60;;;8.30;99.90;;;;;;5087708;28;20656;-75
2023/11/15 03:06:49;;;;;;;0.67;0.67;;;8.30;99.90;;;;;;5088613;28;20620;-75
2023/11/15 03:09:16;;;;;;;1.07;0.60;;;8.30;99.90;;;;;;5087645;28;20671;-75
2023/11/15 03:11:43;;;;;;;0.60;0.60;;;8.30;99.90;;;;;;5091071;28;20985;-75
2023/11/15 03:14:11;;;;;;;0.70;0.70;;;8.40;99.90;;;;;;5089231;28;20628;-75
2023/11/15 03:16:40;;;;;;;1.17;0.83;;;8.40;99.90;;;;;;5089938;28;20631;-75
2023/11/15 03:19:09;;;;;;;0.40;0.40;;;8.40;99.90;;;;;;5088444;28;20648;-75
2023/11/15 03:21:37;;;;;;;3.00;1.40;;;8.30;99.90;;;;;;5089199;28;20629;-75
2023/11/15 03:24:07;;;;;;;1.00;0.80;;;8.30;99.90;;;;;;5087954;28;20631;-75
2023/11/15 03:26:35;;;;;;;1.15;1.05;;;8.40;99.90;;;;;;5092157;28;21006;-75
2023/11/15 03:29:05;;;;;;;0.40;0.30;;;8.40;99.90;;;;;;5098173;28;20675;-74
2023/11/15 03:31:33;;;;;;;1.80;0.83;;;8.40;99.90;;;;;;5081269;28;20698;-74
2023/11/15 03:34:04;;;;;;;0.53;0.47;;;8.50;99.90;;;;;;5087894;28;20621;-75
2023/11/15 03:36:32;;;;;;;0.40;0.40;;;8.50;99.90;;;;;;5091615;28;20621;-76
2023/11/15 03:39:00;;;;;;;0.50;0.50;;;8.50;99.90;;;;;;5085487;28;20625;-76
2023/11/15 03:41:29;;;;;;;0.40;0.40;;;8.50;99.90;;;;;;5086605;28;20682;-76
2023/11/15 03:43:59;;;;;;;1.00;0.80;;;8.60;99.90;;;;;;5085967;28;21037;-75
2023/11/15 03:46:27;;;;;;;2.67;0.77;;;8.60;99.90;;;;;;5087943;28;20695;-76
2023/11/15 03:48:55;;;;;;;2.30;0.87;;;8.50;99.90;;;;;;5086270;28;20682;-76
2023/11/15 03:51:24;;;;;;;2.93;0.53;;;8.40;99.90;;;;;;5088042;28;21269;-75
2023/11/15 03:53:51;;;;;;;1.07;0.97;;;8.40;99.90;;;;;;5086134;28;20674;-76
2023/11/15 03:56:18;;;;;;;1.23;0.73;;;8.30;99.90;;;;;;5087976;28;20690;-76
2023/11/15 03:58:45;;;;;;;1.57;0.57;;;8.30;99.90;;;;;;5091873;28;20972;-76
2023/11/15 04:01:12;;;;;;;0.53;0.53;;;8.30;99.90;;;;;;5091034;28;20989;-76
2023/11/15 04:03:39;;;;;;;1.77;0.70;;;8.20;99.90;;;;;;5087326;28;20613;-75
2023/11/15 04:06:07;;;;;;;2.73;0.97;;;8.20;99.90;;;;;;5087621;28;20629;-76
2023/11/15 04:08:36;;;;;;;1.10;1.00;;;8.30;99.90;;;;;;5092393;28;21257;-76
2023/11/15 04:11:04;;;;;;;0.47;0.40;;;8.20;99.90;;;;;;5088775;28;20751;-75
2023/11/15 04:13:31;;;;;;;1.00;0.83;;;8.20;99.90;;;;;;5092959;28;20637;-76
2023/11/15 04:15:58;;;;;;;0.70;0.57;;;8.20;99.90;;;;;;5088653;28;21517;-76
2023/11/15 04:18:24;;;;;;;0.50;0.50;;;8.20;99.90;;;;;;5095899;28;20699;-76
2023/11/15 04:20:51;;;;;;;1.00;0.67;;;8.20;99.90;;;;;;5086793;28;21235;-76
2023/11/15 04:23:19;;;;;;;0.70;0.50;;;8.20;99.90;;;;;;5087067;28;20612;-75
2023/11/15 04:25:47;;;;;;;0.67;0.50;;;8.20;99.90;;;;;;5087038;28;20617;-75
2023/11/15 04:28:14;;;;;;;0.70;0.60;;;8.20;99.90;;;;;;5086345;28;20628;-76
2023/11/15 04:30:41;;;;;;;0.50;0.50;;;8.20;99.90;;;;;;5092758;28;20670;-75
2023/11/15 04:33:08;;;;;;;0.60;0.60;;;8.20;99.90;;;;;;5090731;28;20632;-76
2023/11/15 04:35:35;;;;;;;0.40;0.40;;;8.10;99.90;;;;;;5086968;28;20621;-75
2023/11/15 04:38:03;;;;;;;0.90;0.70;;;8.10;99.90;;;;;;5085738;28;21774;-76
2023/11/15 04:40:30;;;;;;;1.07;0.93;;;8.00;99.90;;;;;;5086621;28;20706;-76
2023/11/15 04:42:58;;;;;;;0.77;0.40;;;8.00;99.90;;;;;;5093580;28;21129;-76
2023/11/15 04:45:25;;;;;;;1.23;0.67;;;7.90;99.90;;;;;;5087091;28;20624;-76
2023/11/15 04:47:52;;;;;;;4.53;0.70;;;8.00;99.90;;;;;;5087685;28;20988;-75
2023/11/15 04:50:19;;;;;;;0.50;0.50;;;8.00;99.90;;;;;;5087852;28;20625;-76
2023/11/15 04:52:46;;;;;;;0.30;0.30;;;7.90;99.90;;;;;;5090249;28;21027;-76
2023/11/15 04:55:13;;;;;;;0.50;0.30;;;7.90;99.90;;;;;;5087055;28;20968;-75
2023/11/15 04:57:39;;;;;;;1.93;0.70;;;7.90;99.90;;;;;;5092221;28;20623;-76
2023/11/15 05:00:11;;;;;;;2.70;0.77;;;7.90;99.90;;;;;;5091297;28;20631;-76
2023/11/15 05:02:36;;;;;;;0.57;0.53;;;8.10;99.90;;;;;;5092896;28;21095;-76
2023/11/15 05:05:05;;;;;;;1.90;0.87;;;8.20;99.90;;;;;;5090703;28;20621;-76
2023/11/15 05:07:36;;;;;;;1.27;0.67;;;8.20;99.90;;;;;;5094933;28;20624;-75
2023/11/15 05:10:04;;;;;;;0.80;0.70;;;8.20;99.90;;;;;;5091911;28;20621;-76
2023/11/15 05:12:31;;;;;;;0.60;0.47;;;8.20;99.90;;;;;;5094512;28;21120;-76
2023/11/15 05:14:58;;;;;;;0.50;0.40;;;8.20;99.90;;;;;;5090381;28;20704;-75
2023/11/15 05:17:27;;;;;;;0.50;0.50;;;8.20;99.90;;;;;;5100286;28;21153;-75
2023/11/15 05:19:54;;;;;;;0.67;0.60;;;8.20;99.90;;;;;;5089553;28;20620;-75
2023/11/15 05:22:20;;;;;;;2.00;0.77;;;8.20;99.90;;;;;;5090055;28;20735;-75
2023/11/15 05:24:47;;;;;;;0.50;0.40;;;8.30;99.90;;;;;;5091480;28;20616;-76
2023/11/15 05:27:14;;;;;;;0.80;0.70;;;8.30;99.90;;;;;;5091209;28;20711;-75
2023/11/15 05:29:43;;;;;;;0.60;0.60;;;8.30;99.90;;;;;;5093968;28;21016;-76
2023/11/15 05:32:10;;;;;;;1.00;0.47;;;8.30;99.90;;;;;;5087993;28;21196;-76
2023/11/15 05:34:38;;;;;;;0.40;0.40;;;8.30;99.90;;;;;;5085807;28;21169;-77
2023/11/15 05:37:05;;;;;;;0.73;0.73;;;8.20;99.90;;;;;;5091163;28;20675;-77
2023/11/15 05:39:31;;;;;;;0.60;0.50;;;8.30;99.90;;;;;;5092441;28;20627;-78
2023/11/15 05:41:58;;;;;;;1.17;0.73;;;8.30;99.90;;;;;;5091118;28;20637;-79
2023/11/15 05:44:25;;;;;;;0.80;0.80;;;8.30;99.90;;;;;;5089607;28;20623;-78
2023/11/15 05:46:52;;;;;;;0.70;0.70;;;8.30;99.90;;;;;;5097092;28;20635;-73
2023/11/15 05:49:18;;;;;;;0.57;0.57;;;8.30;99.90;;;;;;5090028;28;20620;-73
2023/11/15 05:51:46;;;;;;;0.70;0.70;;;8.40;99.90;;;;;;5093971;28;20670;-75
2023/11/15 05:54:14;;;;;;;2.10;0.70;;;8.40;99.90;;;;;;5089666;28;20629;-77
2023/11/15 05:56:46;;;;;;;0.97;0.87;;;8.30;99.90;;;;;;5089169;28;20637;-74
2023/11/15 05:59:13;;;;;;;0.40;0.30;;;8.30;99.90;;;;;;5090065;28;20965;-73
2023/11/15 06:01:40;;;;;;;0.60;0.60;;;8.30;99.90;;;;;;5089201;28;20635;-73
2023/11/15 06:04:08;;;;;;;0.60;0.60;;;8.20;99.90;;;;;;5092270;28;20975;-73
2023/11/15 06:06:34;;;;;;;0.60;0.50;;;8.20;99.90;;;;;;5090578;28;20617;-72
2023/11/15 06:09:04;;;;;;;0.80;0.70;;;8.20;99.90;;;;;;5088590;28;20613;-76
2023/11/15 06:11:31;;;;;;;0.80;0.70;;;8.20;99.90;;;;;;5086266;28;20662;-75
2023/11/15 06:13:57;;;;;;;0.93;0.77;;;8.20;99.90;;;;;;5088146;28;20625;-76
2023/11/15 06:16:25;;;;;;;0.60;0.60;;;8.00;99.90;;;;;;5097019;28;20622;-73
2023/11/15 06:18:52;;;;;;;1.73;0.70;;;8.10;99.90;;;;;;5088590;28;21204;-72
2023/11/15 06:21:20;;;;;;;0.50;0.50;;;8.10;99.90;;;;;;5087123;28;20621;-73
2023/11/15 06:23:47;;;;;;;0.87;0.60;;;8.10;99.90;;;;;;5088790;28;20631;-72
2023/11/15 06:26:15;;;;;;;2.30;1.47;;;8.00;99.90;;;;;;5093998;28;20624;-73
2023/11/15 06:28:42;;;;;;;2.07;1.90;;;8.00;99.90;;;;;;5098463;28;20682;-74
2023/11/15 06:31:09;;;;;;;2.70;1.20;;;8.00;99.90;;;;;;5094430;28;21185;-73
2023/11/15 06:33:37;;;;;;;1.33;0.80;;;8.00;99.90;;;;;;5088570;28;21066;-73
2023/11/15 06:36:05;;;;;;;1.33;0.63;;;8.00;99.90;;;;;;5088702;28;20625;-73
2023/11/15 06:38:34;;;;;;;1.10;0.60;;;8.00;99.90;;;;;;5087936;28;20632;-72
2023/11/15 06:41:02;;;;;;;1.00;0.90;;;8.10;99.90;;;;;;5086792;28;20622;-73
2023/11/15 06:43:30;;;;;;;1.10;0.97;;;8.00;99.90;;;;;;5087423;28;20690;-72
2023/11/15 06:45:57;;;;;;;0.50;0.50;;;8.00;99.90;;;;;;5098797;28;20628;-72
2023/11/15 06:48:24;;;;;;;1.27;1.13;;;8.10;99.90;;;;;;5095572;28;20625;-72
2023/11/15 06:50:51;;;;;;;0.93;0.90;;;8.10;99.90;;;;;;5089330;28;20735;-72
2023/11/15 06:53:18;;;;;;;3.30;1.13;;;8.10;99.90;;;;;;5087664;28;20668;-72
2023/11/15 06:55:46;;;;;;;1.03;1.00;;;8.10;99.90;;;;;;5087265;28;20629;-72
2023/11/15 06:58:15;;;;;;;1.70;1.60;;;8.00;99.90;;;;;;5087479;28;20660;-72
2023/11/15 07:00:44;;;;;;;1.33;0.90;;;8.00;99.90;;;;;;5087947;28;21181;-72
2023/11/15 07:03:12;;;;;;;2.33;0.97;;;8.00;99.90;;;;;;5088118;28;20720;-72
2023/11/15 07:05:40;;;;;;;1.73;1.23;;;8.00;99.90;;;;;;5087602;28;20617;-72
2023/11/15 07:08:11;;;;;;;1.80;0.83;;;7.90;99.90;;;;;;5087090;28;21051;-73
2023/11/15 07:10:38;;;;;;;0.80;0.80;;;7.90;99.90;;;;;;5088019;28;20621;-72
2023/11/15 07:13:08;;;;;;;0.77;0.67;;;7.90;99.90;;;;;;5087109;28;20665;-72
2023/11/15 07:15:35;;;;;;;1.03;0.90;;;7.80;99.90;;;;;;5086770;28;20653;-72
2023/11/15 07:18:03;;;;;;;1.00;0.90;;;7.80;99.90;;;;;;5086916;28;21033;-73
2023/11/15 07:20:30;;;;;;;2.00;0.90;;;7.80;99.90;;;;;;5086977;28;20633;-72
2023/11/15 07:22:57;;;;;;;0.80;0.73;;;7.90;99.90;;;;;;5087363;28;20618;-72
2023/11/15 07:25:24;;;;;;;1.53;0.90;;;7.90;99.90;;;;;;5087743;28;20628;-72
2023/11/15 07:27:55;;;;;;;2.07;1.33;;;7.90;99.90;;;;;;5086784;28;20736;-72
2023/11/15 07:30:22;;;;;;;2.37;0.67;;;8.00;99.90;;;;;;5087399;28;20624;-72
2023/11/15 07:32:49;;;;;;;1.70;1.10;;;8.10;99.90;;;;;;5086962;28;20660;-72
2023/11/15 07:35:18;;;;;;;0.93;0.93;;;8.10;99.90;;;;;;5086311;28;20666;-72
2023/11/15 07:37:45;;;;;;;0.50;0.50;;;8.10;99.90;;;;;;5086562;28;20631;-71
2023/11/15 07:40:13;;;;;;;0.80;0.80;;;8.10;99.90;;;;;;5087147;28;20621;-72
2023/11/15 07:42:40;;;;;;;2.63;1.43;;;8.00;99.90;;;;;;5087072;28;21088;-72
2023/11/15 07:45:09;;;;;;;1.00;0.90;;;8.00;99.90;;;;;;5087055;28;20629;-72
2023/11/15 07:47:35;;;;;;;0.83;0.83;;;8.00;99.90;;;;;;5086064;28;20617;-71
2023/11/15 07:50:04;;;;;;;1.60;1.07;;;8.10;99.90;;;;;;5086852;28;20709;-72
2023/11/15 07:52:32;;;;;;;2.10;1.50;;;8.10;99.90;;;;;;5086883;28;20676;-72
2023/11/15 07:54:59;;;;;;;1.23;1.13;;;8.10;99.90;;;;;;5086752;28;20635;-72
2023/11/15 07:57:26;;;;;;;2.83;1.40;;;8.20;99.90;;;;;;5086845;28;21002;-72
2023/11/15 07:59:53;;;;;;;1.90;1.67;;;8.30;99.90;;;;;;5086344;28;20995;-72
2023/11/15 08:02:20;;;;;;;1.80;1.67;;;8.40;99.90;;;;;;5086140;28;21110;-72
2023/11/15 08:04:46;;;;;;;1.33;1.00;;;8.40;99.90;;;;;;5086505;28;20999;-72
2023/11/15 08:07:13;;;;;;;2.03;1.40;;;8.40;99.90;;;;;;5086340;28;20635;-72
2023/11/15 08:09:41;;;;;;;4.47;1.13;;;8.30;99.90;;;;;;5085835;28;21398;-72
2023/11/15 08:12:08;;;;;;;1.57;1.27;;;8.30;99.90;;;;;;5086261;28;21224;-73
2023/11/15 08:14:35;;;;;;;1.60;1.43;;;8.30;99.90;;;;;;5086425;28;20649;-72
2023/11/15 08:17:03;;;;;;;1.10;1.10;;;8.40;99.90;;;;;;5086039;28;20716;-71
2023/11/15 08:19:30;;;;;;;1.50;1.27;;;8.60;99.90;;;;;;5085657;28;21272;-71
2023/11/15 08:21:57;;;;;;;4.80;2.00;;;8.80;99.90;;;;;;5078351;28;20631;-72
2023/11/15 08:24:24;;;;;;;1.63;0.90;;;8.80;99.90;;;;;;5086576;28;20733;-71
2023/11/15 08:26:55;;;;;;;6.70;2.03;;;8.90;99.90;;;;;;5086417;28;20633;-71
2023/11/15 08:29:23;;;;;;;1.77;1.37;;;8.90;99.90;;;;;;5085122;28;20627;-72
2023/11/15 08:31:50;;;;;;;2.30;1.20;;;8.90;99.90;;;;;;5086304;28;20621;-71
2023/11/15 08:34:17;;;;;;;1.13;1.03;;;8.90;99.90;;;;;;5086482;28;21151;-72
2023/11/15 08:36:44;;;;;;;1.30;1.10;;;8.90;99.90;;;;;;5082689;28;20632;-73
2023/11/15 08:39:12;;;;;;;1.43;1.13;;;9.00;99.90;;;;;;5083768;28;20628;-71
2023/11/15 08:41:41;;;;;;;1.80;1.13;;;9.10;99.90;;;;;;5086385;28;20636;-72
2023/11/15 08:44:10;;;;;;;0.70;0.70;;;9.10;99.90;;;;;;5089558;28;20995;-71
2023/11/15 08:46:42;;;;;;;1.23;1.13;;;9.20;99.90;;;;;;5093096;28;20625;-71
2023/11/15 08:49:10;;;;;;;1.20;1.10;;;9.20;99.90;;;;;;5092422;28;20640;-72
2023/11/15 08:51:37;;;;;;;1.40;1.30;;;9.20;99.90;;;;;;5092722;28;20617;-72
2023/11/15 08:54:04;;;;;;;0.83;0.73;;;9.10;99.90;;;;;;5092843;28;20687;-72
2023/11/15 08:56:31;;;;;;;0.83;0.70;;;9.10;99.90;;;;;;5083672;28;20988;-72
2023/11/15 08:59:00;;;;;;;1.00;0.93;;;9.10;99.90;;;;;;5092324;28;20621;-72
2023/11/15 09:01:30;;;;;;;1.33;0.90;;;9.00;99.90;;;;;;5092633;28;21090;-72
2023/11/15 09:03:57;;;;;;;0.87;0.70;;;8.90;99.90;;;;;;5092816;28;21285;-72
2023/11/15 09:06:24;;;;;;;1.93;1.07;;;9.00;99.90;;;;;;5092503;28;20629;-72
2023/11/15 09:08:51;;;;;;;1.77;0.80;;;9.10;99.90;;;;;;5091706;28;20639;-72
2023/11/15 09:11:18;;;;;;;1.17;0.53;;;9.10;99.90;;;;;;5092670;28;20621;-72
2023/11/15 09:13:46;;;;;;;1.27;1.10;;;9.20;99.90;;;;;;5092374;28;21262;-72
2023/11/15 09:16:13;;;;;;;0.67;0.60;;;9.20;99.90;;;;;;5092454;28;20629;-72
2023/11/15 09:18:44;;;;;;;1.00;0.90;;;9.20;99.90;;;;;;5091943;28;20629;-72
2023/11/15 09:21:12;;;;;;;1.20;1.10;;;9.20;99.90;;;;;;5092361;28;21188;-72
2023/11/15 09:23:41;;;;;;;0.40;0.30;;;9.30;99.90;;;;;;5092364;28;20698;-72
2023/11/15 09:26:12;;;;;;;2.97;1.30;;;9.30;99.90;;;;;;5091705;28;20679;-72
2023/11/15 09:28:39;;;;;;;0.90;0.70;;;9.40;99.90;;;;;;5092109;28;20625;-72
2023/11/15 09:31:06;;;;;;;0.80;0.80;;;9.40;99.90;;;;;;5084144;28;20629;-72
2023/11/15 09:33:34;;;;;;;0.67;0.63;;;9.40;99.90;;;;;;5093036;28;20656;-72
2023/11/15 09:36:05;;;;;;;0.93;0.83;;;9.40;99.90;;;;;;5092133;28;20619;-72
2023/11/15 09:38:33;;;;;;;1.20;1.10;;;9.40;99.90;;;;;;5091983;28;20892;-71
2023/11/15 09:41:00;;;;;;;1.50;1.33;;;9.40;99.90;;;;;;5092217;28;20625;-72
2023/11/15 09:43:27;;;;;;;1.90;0.70;;;9.50;99.90;;;;;;5092443;28;20620;-72
2023/11/15 09:45:58;;;;;;;2.57;0.90;;;9.70;99.90;;;;;;5092804;28;20627;-72
2023/11/15 09:48:27;;;;;;;1.70;0.90;;;9.70;99.90;;;;;;5080013;28;21211;-73
2023/11/15 09:50:56;;;;;;;0.57;0.53;;;9.70;99.90;;;;;;5092055;28;20756;-73
2023/11/15 09:53:27;;;;;;;4.30;1.03;;;9.70;99.90;;;;;;5091944;28;20812;-73
2023/11/15 09:55:54;;;;;;;0.50;0.50;;;9.70;99.90;;;;;;5090175;28;20628;-73
2023/11/15 09:58:21;;;;;;;0.40;0.40;;;9.70;99.90;;;;;;5088500;28;20629;-73
2023/11/15 10:00:48;;;;;;;1.10;0.40;;;9.60;99.90;;;;;;5089148;28;20617;-73
2023/11/15 10:03:19;;;;;;;0.73;0.70;;;9.70;99.90;;;;;;5088230;28;20627;-73
2023/11/15 10:05:59;;;;;;;0.70;0.70;;;9.70;99.90;;;;;;5089060;28;21176;-72
2023/11/15 10:08:28;;;;;;;0.50;0.50;;;9.80;99.90;;;;;;5088093;28;20633;-72
2023/11/15 10:11:06;;;;;;;0.60;0.50;;;9.80;99.90;;;;;;5089234;28;20617;-72
2023/11/15 10:13:37;;;;;;;0.87;0.60;;;9.90;99.90;;;;;;5088155;28;20663;-72
2023/11/15 10:16:24;;;;;;;0.40;0.33;;;9.90;99.90;;;;;;5089018;28;20731;-71
2023/11/15 10:18:51;;;;;;;0.80;0.60;;;9.90;99.90;;;;;;5088592;28;20719;-72
2023/11/15 10:21:19;;;;;;;0.60;0.60;;;9.90;99.90;;;;;;5088627;28;20704;-72
2023/11/15 10:23:48;;;;;;;1.17;0.53;;;10.00;99.90;;;;;;5088474;28;20640;-72
2023/11/15 10:26:16;;;;;;;0.40;0.40;;;9.90;99.90;;;;;;5087383;28;20712;-73
2023/11/15 10:28:44;;;;;;;1.00;1.00;;;10.00;99.90;;;;;;5087995;28;20674;-72
2023/11/15 10:31:14;;;;;;;1.40;0.80;;;9.90;99.90;;;;;;5088338;28;21181;-72
2023/11/15 10:33:45;;;;;;;1.30;0.70;;;10.00;99.90;;;;;;5088837;28;20695;-72
2023/11/15 10:36:16;;;;;;;1.00;0.80;;;10.10;99.90;;;;;;5088349;28;20656;-72
2023/11/15 10:38:44;;;;;;;3.33;0.70;;;10.20;99.90;;;;;;5087164;28;21044;-72
2023/11/15 10:41:17;;;;;;;0.40;0.40;;;10.30;99.90;;;;;;5087796;28;20632;-72
2023/11/15 10:43:46;;;;;;;1.53;0.60;;;10.30;99.90;;;;;;5088664;28;20628;-72
2023/11/15 10:46:15;;;;;;;0.60;0.60;;;10.30;99.90;;;;;;5088328;28;20621;-72
2023/11/15 10:48:45;;;;;;;0.90;0.90;;;10.40;99.90;;;;;;5087631;28;20980;-72
2023/11/15 10:51:20;;;;;;;0.67;0.43;;;10.40;99.90;;;;;;5085824;28;21484;-72
2023/11/15 10:53:47;;;;;;;0.60;0.60;;;10.50;99.90;;;;;;5088107;28;20672;-71
2023/11/15 10:56:19;;;;;;;1.00;0.63;;;10.60;99.90;;;;;;5088055;28;20722;-72
2023/11/15 10:58:48;;;;;;;0.40;0.40;;;10.50;99.90;;;;;;5087444;28;20990;-72
2023/11/15 11:01:16;;;;;;;0.57;0.57;;;10.40;99.90;;;;;;5087629;28;20979;-72
2023/11/15 11:03:45;;;;;;;0.40;0.40;;;10.50;99.90;;;;;;5087218;28;20629;-71
2023/11/15 11:06:20;;;;;;;0.40;0.40;;;10.60;99.90;;;;;;5087417;28;20630;-72
2023/11/15 11:09:02;;;;;;;0.53;0.50;;;10.60;99.90;;;;;;5079324;28;20623;-71
2023/11/15 11:11:35;;;;;;;0.50;0.50;;;10.70;99.90;;;;;;5087825;28;21010;-72
2023/11/15 11:14:16;;;;;;;1.43;0.50;;;10.70;99.90;;;;;;5086941;28;21032;-72
2023/11/15 11:16:44;;;;;;;1.53;0.33;;;10.60;99.90;;;;;;5087003;28;21192;-71
2023/11/15 11:19:16;;;;;;;1.00;0.60;;;10.50;99.90;;;;;;5087219;28;20660;-71
2023/11/15 11:22:07;;;;;;;0.50;0.40;;;10.50;99.90;;;;;;5088007;28;20628;-72
2023/11/15 11:24:38;;;;;;;1.23;0.70;;;10.50;99.90;;;;;;5079178;28;20718;-72
2023/11/15 11:27:32;;;;;;;0.50;0.43;;;10.50;99.90;;;;;;5079940;28;20712;-71
2023/11/15 11:30:20;;;;;;;0.40;0.40;;;10.50;99.90;;;;;;5087099;28;20728;-70
2023/11/15 11:32:49;;;;;;;2.00;0.60;;;10.50;99.90;;;;;;5086387;28;21017;-71
2023/11/15 11:35:34;;;;;;;0.97;0.70;;;10.50;99.90;;;;;;5087368;28;20982;-71
2023/11/15 11:38:01;;;;;;;1.90;0.90;;;10.40;99.90;;;;;;5086796;28;20621;-71
2023/11/15 11:40:31;;;;;;;0.50;0.50;;;10.40;99.90;;;;;;5086594;28;21070;-71
2023/11/15 11:43:18;;;;;;;1.93;0.80;;;10.50;99.90;;;;;;5087218;28;20996;-71
2023/11/15 11:45:46;;;;;;;0.90;0.70;;;10.50;99.90;;;;;;5087030;28;20617;-71
2023/11/15 11:48:20;;;;;;;0.60;0.43;;;10.40;99.90;;;;;;5086280;28;20732;-71
2023/11/15 11:51:03;;;;;;;0.60;0.57;;;10.50;99.90;;;;;;5087305;28;20617;-71
2023/11/15 11:53:30;;;;;;;0.80;0.53;;;10.50;99.90;;;;;;5078410;28;20748;-71
2023/11/15 11:55:57;;;;;;;0.80;0.53;;;10.60;99.90;;;;;;5086959;28;20637;-71
2023/11/15 11:58:27;;;;;;;2.23;0.60;;;10.50;99.90;;;;;;5086429;28;20704;-70
2023/11/15 12:01:01;;;;;;;4.93;0.80;;;10.40;99.90;;;;;;5086830;28;20660;-70
2023/11/15 12:03:30;;;;;;;0.70;0.70;;;10.30;99.90;;;;;;5086659;28;20994;-70
2023/11/15 12:06:08;;;;;;;1.00;0.80;;;10.30;99.90;;;;;;5086751;28;20962;-70
2023/11/15 12:08:36;;;;;;;0.87;0.73;;;10.40;99.90;;;;;;5086352;28;20624;-70
2023/11/15 12:11:04;;;;;;;1.20;1.00;;;10.40;99.90;;;;;;5086957;28;21026;-71
2023/11/15 12:13:47;;;;;;;0.70;0.70;;;10.50;99.90;;;;;;5086609;28;20676;-71
2023/11/15 12:16:21;;;;;;;1.00;0.60;;;10.70;99.90;;;;;;5086236;28;21275;-72
2023/11/15 12:19:05;;;;;;;0.77;0.63;;;10.80;99.90;;;;;;5084769;28;21200;-71
2023/11/15 12:21:33;;;;;;;0.80;0.47;;;10.90;99.90;;;;;;5086589;28;20633;-71
2023/11/15 12:24:04;;;;;;;1.47;0.80;;;11.10;99.90;;;;;;5086775;28;20639;-71
2023/11/15 12:26:44;;;;;;;0.70;0.40;;;11.30;99.90;;;;;;5086258;28;20617;-71
2023/11/15 12:29:21;;;;;;;0.87;0.47;;;11.40;99.90;;;;;;5078294;28;20729;-71
2023/11/15 12:31:50;;;;;;;2.60;0.40;;;11.40;99.90;;;;;;5085750;28;20625;-71
2023/11/15 12:34:17;;;;;;;1.20;0.70;;;11.40;99.90;;;;;;5086196;28;20679;-71
2023/11/15 12:36:45;;;;;;;0.73;0.40;;;11.50;99.90;;;;;;5086320;28;20624;-71
2023/11/15 12:39:13;;;;;;;0.70;0.53;;;11.60;99.20;;;;;;5085954;28;20625;-72
2023/11/15 12:41:47;;;;;;;0.60;0.47;;;11.60;99.60;;;;;;5085603;28;20629;-72
2023/11/15 12:44:14;;;;;;;1.17;0.77;;;11.70;99.90;;;;;;5086173;28;21036;-71
2023/11/15 12:46:43;;;;;;;1.50;0.67;;;11.60;99.20;;;;;;5086116;28;20712;-71
2023/11/15 12:49:14;;;;;;;0.70;0.40;;;11.50;99.20;;;;;;5085583;28;21263;-71
2023/11/15 12:51:48;;;;;;;0.57;0.57;;;11.40;99.30;;;;;;5086248;28;21090;-71
2023/11/15 12:54:15;;;;;;;0.97;0.70;;;11.20;99.20;;;;;;5085819;28;21250;-73
2023/11/15 12:56:43;;;;;;;1.10;0.40;;;11.10;98.90;;;;;;5086108;28;20620;-72
2023/11/15 12:59:14;;;;;;;0.90;0.77;;;11.00;99.30;;;;;;5085807;28;20625;-72
2023/11/15 13:01:45;;;;;;;1.87;0.50;;;10.90;99.60;;;;;;5085657;28;20621;-72
2023/11/15 13:04:14;;;;;;;1.17;0.67;;;11.00;99.70;;;;;;5086049;28;20621;-72